Terminal Aerodrome Forecast
Issued by NWS

Home | Current Version | Previous Version | Text Only | Print | Product List | Glossary Off
Versions: 1 2 3 4 5 6 7 8 9 10 11 12 13 14 15 16 17 18 19

000
FTUS43 KICT 131722
TAFCNU
TAF
KCNU 131722Z 1318/1418 03006KT P6SM BKN080
     FM140300 09005KT P6SM OVC070
     FM140700 14005KT P6SM VCSH OVC070
     FM141200 16005KT P6SM OVC040=

USA.gov is the U.S. government's official web portal to all federal, state and local government web resources and services.